createdAt,value
2019-05-03T00:00:06.687Z,100371.14
2019-05-03T00:03:01.711Z,100373.69
2019-05-03T00:05:37.258Z,100372.80
2019-05-03T00:08:09.123Z,100365.83
2019-05-03T00:10:39.749Z,100372.52
2019-05-03T00:13:12.543Z,100377.34
2019-05-03T00:16:02.696Z,100379.13
2019-05-03T00:18:33.404Z,100384.41
2019-05-03T00:21:03.643Z,100384.38
2019-05-03T00:23:33.802Z,100382.69
2019-05-03T00:26:04.779Z,100387.84
2019-05-03T00:28:34.963Z,100384.28
2019-05-03T00:31:05.164Z,100386.68
2019-05-03T00:33:36.998Z,100385.30
2019-05-03T00:36:32.662Z,100386.09
2019-05-03T00:39:16.956Z,100394.11
2019-05-03T00:41:49.697Z,100395.86
2019-05-03T00:44:19.268Z,100396.72
2019-05-03T00:46:51.313Z,100397.98
2019-05-03T00:49:22.613Z,100399.42
2019-05-03T00:51:53.625Z,100399.88
2019-05-03T00:54:23.785Z,100395.06
2019-05-03T00:56:53.954Z,100395.55
2019-05-03T00:59:24.098Z,100395.12
2019-05-03T01:01:54.412Z,100394.20
2019-05-03T01:04:24.650Z,100393.50
2019-05-03T01:06:54.905Z,100392.70
2019-05-03T01:09:29.403Z,100398.84
2019-05-03T01:11:59.613Z,100400.36
2019-05-03T01:14:31.547Z,100397.64
2019-05-03T01:17:02.613Z,100403.46
2019-05-03T01:19:33.736Z,100404.35
2019-05-03T01:22:04.142Z,100401.28
2019-05-03T01:24:35.926Z,100404.50
2019-05-03T01:27:06.340Z,100408.39
2019-05-03T01:29:37.646Z,100405.73
2019-05-03T01:32:07.841Z,100413.73
2019-05-03T01:34:38.910Z,100412.49
2019-05-03T01:37:09.174Z,100419.92
2019-05-03T01:39:39.392Z,100414.25
2019-05-03T01:42:09.648Z,100414.25
2019-05-03T01:44:39.810Z,100416.91
2019-05-03T01:47:13.588Z,100409.98
2019-05-03T01:49:56.101Z,100412.25
2019-05-03T01:52:32.392Z,100411.77
2019-05-03T01:55:03.382Z,100417.12
2019-05-03T01:57:33.723Z,100419.84
2019-05-03T02:00:04.589Z,100418.26
2019-05-03T02:02:49.280Z,100423.73
2019-05-03T02:05:42.836Z,100426.44
2019-05-03T02:08:14.448Z,100434.78
2019-05-03T02:10:44.654Z,100435.28
2019-05-03T02:13:14.834Z,100430.45
2019-05-03T02:15:45.223Z,100443.73
2019-05-03T02:18:15.548Z,100441.46
2019-05-03T02:20:45.835Z,100442.86
2019-05-03T02:23:16.039Z,100449.98
2019-05-03T02:25:56.195Z,100451.33
2019-05-03T02:28:18.100Z,100447.52
2019-05-03T02:30:48.245Z,100458.87
2019-05-03T02:33:18.388Z,100457.25
2019-05-03T02:35:48.652Z,100454.22
2019-05-03T02:38:18.830Z,100456.86
2019-05-03T02:40:49.051Z,100460.45
2019-05-03T02:43:29.459Z,100459.58
2019-05-03T02:46:17.558Z,100465.28
2019-05-03T02:49:06.189Z,100469.30
2019-05-03T02:51:36.058Z,100467.02
2019-05-03T02:54:06.388Z,100466.66
2019-05-03T02:56:41.936Z,100475.06
2019-05-03T02:59:16.247Z,100477.22
2019-05-03T03:01:47.185Z,100483.36
2019-05-03T03:04:18.742Z,100478.09
2019-05-03T03:06:49.652Z,100480.27
2019-05-03T03:09:26.000Z,100483.36
2019-05-03T03:12:05.996Z,100489.52
2019-05-03T03:14:36.212Z,100491.20
2019-05-03T03:17:08.769Z,100489.11
2019-05-03T03:19:42.166Z,100498.41
2019-05-03T03:22:17.300Z,100491.03
2019-05-03T03:24:50.651Z,100491.02
2019-05-03T03:27:26.999Z,100499.49
2019-05-03T03:30:28.927Z,100493.88
2019-05-03T03:32:58.371Z,100497.30
2019-05-03T03:35:30.694Z,100499.55
2019-05-03T03:38:01.052Z,100507.09
2019-05-03T03:40:36.632Z,100504.02
2019-05-03T03:43:11.206Z,100501.81
2019-05-03T03:45:45.540Z,100509.24
2019-05-03T03:48:18.928Z,100510.51
2019-05-03T03:50:51.744Z,100511.04
2019-05-03T03:53:26.391Z,100508.42
2019-05-03T03:55:57.215Z,100517.55
2019-05-03T03:58:27.598Z,100517.61
2019-05-03T04:00:59.191Z,100514.55
2019-05-03T04:03:29.485Z,100518.07
2019-05-03T04:06:05.710Z,100525.52
2019-05-03T04:08:36.408Z,100520.34
2019-05-03T04:11:06.804Z,100543.55
2019-05-03T04:13:39.053Z,100533.84
2019-05-03T04:16:27.504Z,100537.00
2019-05-03T04:19:12.105Z,100534.30
2019-05-03T04:21:47.694Z,100536.09
2019-05-03T04:24:25.687Z,100538.27
2019-05-03T04:27:18.454Z,100543.95
2019-05-03T04:29:40.015Z,100550.51
2019-05-03T04:32:10.478Z,100553.21
2019-05-03T04:34:40.683Z,100549.64
2019-05-03T04:37:16.176Z,100560.61
2019-05-03T04:39:56.016Z,100567.19
2019-05-03T04:42:25.939Z,100564.56
2019-05-03T04:44:56.644Z,100574.62
2019-05-03T04:47:27.239Z,100573.29
2019-05-03T04:49:57.468Z,100570.23
2019-05-03T04:52:27.676Z,100567.10
2019-05-03T04:54:59.377Z,100570.64
2019-05-03T04:57:40.133Z,100580.72
2019-05-03T05:00:01.425Z,100583.79
2019-05-03T05:02:31.657Z,100589.50
2019-05-03T05:05:01.782Z,100594.33
2019-05-03T05:07:35.065Z,100598.70
2019-05-03T05:10:05.402Z,100594.27
2019-05-03T05:12:35.684Z,100603.88
2019-05-03T05:15:06.877Z,100602.14
2019-05-03T05:17:50.295Z,100603.88
2019-05-03T05:20:31.285Z,100598.19
2019-05-03T05:23:01.467Z,100606.51
2019-05-03T05:25:35.504Z,100602.58
2019-05-03T05:28:20.948Z,100604.80
2019-05-03T05:30:51.213Z,100611.79
2019-05-03T05:33:21.352Z,100607.84
2019-05-03T05:35:52.113Z,100620.05
2019-05-03T05:38:25.325Z,100616.11
2019-05-03T05:40:58.016Z,100617.00
2019-05-03T05:43:28.226Z,100631.13
2019-05-03T05:45:58.982Z,100626.66
2019-05-03T05:48:36.152Z,100630.58
2019-05-03T05:51:06.297Z,100627.53
2019-05-03T05:53:36.522Z,100628.31
2019-05-03T05:56:25.062Z,100631.36
2019-05-03T05:59:09.642Z,100625.23
2019-05-03T06:01:48.479Z,100634.43
2019-05-03T06:04:18.624Z,100629.17
2019-05-03T06:06:58.117Z,100625.58
2019-05-03T06:09:50.469Z,100630.31
2019-05-03T06:12:51.920Z,100642.20
2019-05-03T06:15:39.895Z,100646.27
2019-05-03T06:18:17.088Z,100640.47
2019-05-03T06:20:57.733Z,100644.77
2019-05-03T06:23:35.089Z,100650.51
2019-05-03T06:26:25.294Z,100645.74
2019-05-03T06:28:57.144Z,100656.67
2019-05-03T06:31:55.303Z,100653.17
2019-05-03T06:34:26.400Z,100646.93
2019-05-03T06:36:58.318Z,100646.45
2019-05-03T06:39:28.547Z,100649.42
2019-05-03T06:41:58.782Z,100649.01
2019-05-03T06:44:28.970Z,100647.56
2019-05-03T06:47:01.084Z,100653.23
2019-05-03T06:49:31.106Z,100652.71
2019-05-03T06:52:01.249Z,100653.34
2019-05-03T06:54:31.439Z,100652.73
2019-05-03T06:57:05.701Z,100656.17
2019-05-03T06:59:39.749Z,100651.91
2019-05-03T07:02:31.839Z,100653.23
2019-05-03T07:05:04.548Z,100656.63
2019-05-03T07:07:44.501Z,100657.76
2019-05-03T07:10:20.440Z,100656.75
2019-05-03T07:13:00.578Z,100659.10
2019-05-03T07:15:31.055Z,100659.10
2019-05-03T07:18:01.274Z,100661.17
2019-05-03T07:20:44.571Z,100659.88
2019-05-03T07:23:15.704Z,100649.23
2019-05-03T07:25:45.984Z,100647.87
2019-05-03T07:28:17.172Z,100657.82
2019-05-03T07:30:47.343Z,100651.91
2019-05-03T07:33:25.384Z,100654.42
2019-05-03T07:35:55.422Z,100654.47
2019-05-03T07:38:25.629Z,100645.27
2019-05-03T07:40:55.825Z,100646.10
2019-05-03T07:43:25.932Z,100649.66
2019-05-03T07:45:56.093Z,100648.66
2019-05-03T07:48:26.649Z,100646.16
2019-05-03T07:50:56.791Z,100642.95
2019-05-03T07:53:26.893Z,100641.25
2019-05-03T07:56:10.508Z,100640.23
2019-05-03T07:58:42.267Z,100640.22
2019-05-03T08:01:21.546Z,100641.71
2019-05-03T08:03:51.661Z,100639.09
2019-05-03T08:06:21.977Z,100634.44
2019-05-03T08:08:52.187Z,100635.87
2019-05-03T08:11:22.308Z,100635.53
2019-05-03T08:13:52.435Z,100632.89
2019-05-03T08:16:25.084Z,100633.59
2019-05-03T08:18:55.967Z,100637.45
2019-05-03T08:21:26.410Z,100639.98
2019-05-03T08:23:56.528Z,100630.36
2019-05-03T08:26:26.665Z,100631.70
2019-05-03T08:28:56.752Z,100641.78
2019-05-03T08:31:45.940Z,100634.73
2019-05-03T08:34:48.997Z,100628.41
2019-05-03T08:37:34.956Z,100632.98
2019-05-03T08:40:05.688Z,100627.70
2019-05-03T08:42:35.857Z,100632.94
2019-05-03T08:45:25.597Z,100636.86
2019-05-03T08:47:55.906Z,100628.21
2019-05-03T08:50:26.048Z,100628.41
2019-05-03T08:52:56.210Z,100624.87
2019-05-03T08:55:26.451Z,100630.20
2019-05-03T08:57:56.767Z,100627.75
2019-05-03T09:00:29.421Z,100634.25
2019-05-03T09:02:59.802Z,100633.30
2019-05-03T09:05:29.949Z,100625.17
2019-05-03T09:08:01.172Z,100621.06
2019-05-03T09:10:46.266Z,100625.17
2019-05-03T09:13:18.329Z,100632.66
2019-05-03T09:15:48.949Z,100624.41
2019-05-03T09:18:19.152Z,100629.54
2019-05-03T09:20:49.276Z,100620.27
2019-05-03T09:23:19.482Z,100618.58
2019-05-03T09:25:49.634Z,100616.87
2019-05-03T09:28:19.918Z,100622.01
2019-05-03T09:30:50.046Z,100617.63
2019-05-03T09:33:20.317Z,100611.27
2019-05-03T09:35:50.491Z,100610.18
2019-05-03T09:38:22.302Z,100612.49
2019-05-03T09:40:54.603Z,100615.44
2019-05-03T09:43:25.200Z,100615.69
2019-05-03T09:45:55.599Z,100627.94
2019-05-03T09:48:25.809Z,100634.77
2019-05-03T09:50:56.009Z,100627.32
2019-05-03T09:53:30.776Z,100627.41
2019-05-03T09:56:00.904Z,100622.86
2019-05-03T09:58:31.129Z,100629.48
2019-05-03T10:01:01.275Z,100619.50
2019-05-03T10:03:32.344Z,100607.70
2019-05-03T10:06:02.451Z,100604.53
2019-05-03T10:08:32.715Z,100608.29
2019-05-03T10:11:14.783Z,100615.26
2019-05-03T10:13:48.067Z,100619.37
2019-05-03T10:16:16.312Z,100627.64
2019-05-03T10:18:46.785Z,100619.57
2019-05-03T10:21:17.986Z,100617.16
2019-05-03T10:23:48.270Z,100615.50
2019-05-03T10:26:18.460Z,100607.64
2019-05-03T10:28:48.625Z,100606.77
2019-05-03T10:31:20.474Z,100609.61
2019-05-03T10:33:55.845Z,100606.20
2019-05-03T10:36:25.983Z,100615.48
2019-05-03T10:38:56.239Z,100607.30
2019-05-03T10:41:27.662Z,100603.12
2019-05-03T10:43:57.897Z,100606.24
2019-05-03T10:46:28.050Z,100596.87
2019-05-03T10:48:58.268Z,100600.31
2019-05-03T10:51:30.599Z,100580.92
2019-05-03T10:54:00.915Z,100583.78
2019-05-03T10:56:52.801Z,100596.56
2019-05-03T10:59:24.796Z,100587.52
2019-05-03T11:02:25.298Z,100581.73
2019-05-03T11:04:55.503Z,100585.05
2019-05-03T11:07:25.843Z,100569.95
2019-05-03T11:09:56.345Z,100568.13
2019-05-03T11:12:27.213Z,100582.39
2019-05-03T11:14:57.420Z,100582.23
2019-05-03T11:17:27.637Z,100588.14
2019-05-03T11:19:57.941Z,100575.16
2019-05-03T11:22:28.122Z,100569.96
2019-05-03T11:24:58.415Z,100562.13
2019-05-03T11:27:35.417Z,100564.36
2019-05-03T11:30:06.106Z,100562.18
2019-05-03T11:32:48.073Z,100560.77
2019-05-03T11:35:37.328Z,100558.08
2019-05-03T11:38:15.054Z,100562.91
2019-05-03T11:40:48.541Z,100558.80
2019-05-03T11:43:24.792Z,100545.28
2019-05-03T11:45:55.551Z,100555.75
2019-05-03T11:48:25.851Z,100559.67
2019-05-03T11:50:56.212Z,100564.95
2019-05-03T11:53:26.356Z,100566.22
2019-05-03T11:55:56.497Z,100569.63
2019-05-03T11:58:27.354Z,100569.20
2019-05-03T12:01:12.977Z,100573.41
2019-05-03T12:03:40.595Z,100578.95
2019-05-03T12:06:10.846Z,100581.74
2019-05-03T12:08:41.041Z,100584.05
2019-05-03T12:11:11.181Z,100581.64
2019-05-03T12:13:41.483Z,100592.69
2019-05-03T12:16:20.184Z,100584.12
2019-05-03T12:18:50.253Z,100583.47
2019-05-03T12:21:17.890Z,100577.10
2019-05-03T12:23:48.536Z,100582.41
2019-05-03T12:26:22.681Z,100577.34
2019-05-03T12:28:54.339Z,100576.11
2019-05-03T12:31:36.194Z,100571.76
2019-05-03T12:33:56.337Z,100553.47
2019-05-03T12:36:26.453Z,100560.28
2019-05-03T12:38:56.621Z,100556.92
2019-05-03T12:41:26.729Z,100551.32
2019-05-03T12:43:57.987Z,100550.53
2019-05-03T12:46:28.415Z,100540.30
2019-05-03T12:48:59.751Z,100547.42
2019-05-03T12:51:30.238Z,100546.43
2019-05-03T12:54:00.355Z,100545.28
2019-05-03T12:56:32.763Z,100541.44
2019-05-03T12:59:10.563Z,100545.06
2019-05-03T13:02:05.738Z,100545.61
2019-05-03T13:04:37.508Z,100554.78
2019-05-03T13:07:34.683Z,100550.16
2019-05-03T13:10:05.430Z,100549.97
2019-05-03T13:12:49.164Z,100552.27
2019-05-03T13:15:07.795Z,100546.24
2019-05-03T13:17:38.470Z,100542.67
2019-05-03T13:20:10.909Z,100545.03
2019-05-03T13:22:41.178Z,100547.63
2019-05-03T13:25:15.710Z,100543.85
2019-05-03T13:27:46.452Z,100542.72
2019-05-03T13:30:20.094Z,100540.61
2019-05-03T13:32:51.260Z,100534.77
2019-05-03T13:35:21.490Z,100534.39
2019-05-03T13:37:51.719Z,100526.11
2019-05-03T13:40:21.891Z,100532.20
2019-05-03T13:42:57.707Z,100523.12
2019-05-03T13:45:24.723Z,100519.63
2019-05-03T13:47:55.441Z,100505.63
2019-05-03T13:50:26.546Z,100501.02
2019-05-03T13:53:02.225Z,100485.63
2019-05-03T13:55:35.286Z,100486.94
2019-05-03T13:58:05.373Z,100489.96
2019-05-03T14:00:35.466Z,100477.37
2019-05-03T14:03:05.794Z,100478.28
2019-05-03T14:05:35.926Z,100481.44
2019-05-03T14:08:06.177Z,100476.50
2019-05-03T14:10:39.350Z,100479.20
2019-05-03T14:13:10.880Z,100482.95
2019-05-03T14:15:41.341Z,100477.08
2019-05-03T14:18:11.638Z,100487.77
2019-05-03T14:21:09.795Z,100489.52
2019-05-03T14:23:58.773Z,100493.55
2019-05-03T14:26:29.186Z,100490.29
2019-05-03T14:28:59.846Z,100500.21
2019-05-03T14:31:30.204Z,100501.84
2019-05-03T14:34:00.680Z,100499.58
2019-05-03T14:36:33.180Z,100495.85
2019-05-03T14:39:05.138Z,100490.69
2019-05-03T14:41:36.260Z,100492.87
2019-05-03T14:44:06.586Z,100486.25
2019-05-03T14:46:36.785Z,100488.44
2019-05-03T14:49:08.551Z,100491.21
2019-05-03T14:51:38.773Z,100488.98
2019-05-03T14:54:14.514Z,100485.42
2019-05-03T14:57:03.780Z,100479.53
2019-05-03T14:59:51.780Z,100475.42
2019-05-03T15:02:57.669Z,100471.51
2019-05-03T15:05:28.561Z,100469.81
2019-05-03T15:08:02.941Z,100467.87
2019-05-03T15:10:34.979Z,100460.23
2019-05-03T15:13:05.949Z,100455.80
2019-05-03T15:15:36.544Z,100451.20
2019-05-03T15:18:15.026Z,100448.60
2019-05-03T15:20:48.300Z,100444.20
2019-05-03T15:23:25.222Z,100451.94
2019-05-03T15:25:55.410Z,100462.44
2019-05-03T15:28:25.798Z,100456.17
2019-05-03T15:30:57.262Z,100451.64
2019-05-03T15:33:27.562Z,100443.79
2019-05-03T15:35:57.752Z,100443.38
2019-05-03T15:38:30.265Z,100441.98
2019-05-03T15:41:01.902Z,100440.00
2019-05-03T15:43:41.076Z,100445.20
2019-05-03T15:46:27.706Z,100430.73
2019-05-03T15:48:59.731Z,100441.09
2019-05-03T15:51:30.036Z,100428.15
2019-05-03T15:54:00.310Z,100428.02
2019-05-03T15:56:30.508Z,100432.30
2019-05-03T15:59:00.778Z,100432.91
2019-05-03T16:01:30.939Z,100426.89
2019-05-03T16:04:01.117Z,100425.80
2019-05-03T16:06:31.452Z,100424.52
2019-05-03T16:09:01.846Z,100422.23
2019-05-03T16:11:55.560Z,100424.95
2019-05-03T16:14:25.848Z,100423.92
2019-05-03T16:16:59.126Z,100419.85
2019-05-03T16:19:31.442Z,100414.17
2019-05-03T16:22:01.732Z,100416.30
2019-05-03T16:24:33.060Z,100416.83
2019-05-03T16:27:24.838Z,100410.31
2019-05-03T16:29:55.111Z,100407.34
2019-05-03T16:32:25.276Z,100416.36
2019-05-03T16:34:55.431Z,100411.84
2019-05-03T16:37:26.770Z,100403.66
2019-05-03T16:39:57.864Z,100402.02
2019-05-03T16:42:34.922Z,100400.95
2019-05-03T16:45:05.597Z,100397.93
2019-05-03T16:47:35.836Z,100403.53
2019-05-03T16:50:06.531Z,100399.23
2019-05-03T16:52:36.747Z,100401.47
2019-05-03T16:55:09.599Z,100398.97
2019-05-03T16:57:44.797Z,100394.95
2019-05-03T17:00:18.099Z,100401.56
2019-05-03T17:02:48.330Z,100410.42
2019-05-03T17:05:37.607Z,100405.83
2019-05-03T17:08:34.542Z,100406.82
2019-05-03T17:11:07.368Z,100406.48
2019-05-03T17:13:39.814Z,100413.88
2019-05-03T17:16:14.570Z,100406.45
2019-05-03T17:18:45.238Z,100410.33
2019-05-03T17:21:16.311Z,100407.24
2019-05-03T17:23:49.258Z,100405.60
2019-05-03T17:26:19.587Z,100415.45
2019-05-03T17:28:56.145Z,100417.52
2019-05-03T17:31:29.746Z,100407.33
2019-05-03T17:34:01.149Z,100422.33
2019-05-03T17:36:34.280Z,100422.91
2019-05-03T17:39:09.278Z,100418.39
2019-05-03T17:41:58.401Z,100415.78
2019-05-03T17:44:39.601Z,100414.97
2019-05-03T17:47:14.900Z,100412.14
2019-05-03T17:49:45.275Z,100419.30
2019-05-03T17:52:35.325Z,100412.88
2019-05-03T17:55:24.513Z,100406.95
2019-05-03T17:58:04.397Z,100406.69
2019-05-03T18:00:53.196Z,100406.60
2019-05-03T18:03:30.073Z,100406.14
2019-05-03T18:06:06.052Z,100410.53
2019-05-03T18:08:51.668Z,100407.63
2019-05-03T18:11:29.721Z,100404.28
2019-05-03T18:14:01.719Z,100410.61
2019-05-03T18:16:31.938Z,100407.97
2019-05-03T18:19:02.288Z,100410.55
2019-05-03T18:21:32.488Z,100412.22
2019-05-03T18:24:04.792Z,100407.83
2019-05-03T18:26:35.549Z,100405.30
2019-05-03T18:29:10.593Z,100412.27
2019-05-03T18:31:42.128Z,100409.63
2019-05-03T18:34:22.246Z,100417.91
2019-05-03T18:36:50.880Z,100414.84
2019-05-03T18:39:21.247Z,100415.18
2019-05-03T18:41:52.074Z,100421.33
2019-05-03T18:44:28.824Z,100421.86
2019-05-03T18:47:05.690Z,100430.91
2019-05-03T18:49:38.209Z,100421.08
2019-05-03T18:52:08.479Z,100428.73
2019-05-03T18:54:44.454Z,100434.70
2019-05-03T18:57:18.883Z,100431.55
2019-05-03T18:59:49.259Z,100424.66
2019-05-03T19:02:19.523Z,100426.41
2019-05-03T19:05:10.536Z,100426.23
2019-05-03T19:08:07.662Z,100425.91
2019-05-03T19:10:51.729Z,100422.55
2019-05-03T19:13:30.040Z,100420.23
2019-05-03T19:16:06.830Z,100420.98
2019-05-03T19:18:39.113Z,100426.98
2019-05-03T19:21:11.392Z,100424.40
2019-05-03T19:23:41.913Z,100432.00
2019-05-03T19:26:14.654Z,100423.91
2019-05-03T19:28:47.619Z,100425.33
2019-05-03T19:31:18.678Z,100429.75
2019-05-03T19:33:50.441Z,100439.93
2019-05-03T19:36:20.979Z,100435.44
2019-05-03T19:38:54.965Z,100434.52
2019-05-03T19:41:30.168Z,100428.50
2019-05-03T19:44:04.365Z,100421.96
2019-05-03T19:46:36.559Z,100422.06
2019-05-03T19:49:06.814Z,100421.96
2019-05-03T19:51:37.247Z,100422.49
2019-05-03T19:54:07.663Z,100420.64
2019-05-03T19:56:37.927Z,100422.92
2019-05-03T19:59:11.105Z,100422.95
2019-05-03T20:02:06.548Z,100417.44
2019-05-03T20:05:15.023Z,100420.91
2019-05-03T20:08:05.186Z,100418.58
2019-05-03T20:10:35.607Z,100418.61
2019-05-03T20:13:09.420Z,100412.08
2019-05-03T20:15:44.937Z,100421.04
2019-05-03T20:18:18.189Z,100421.56
2019-05-03T20:20:51.137Z,100419.95
2019-05-03T20:23:22.278Z,100416.34
2019-05-03T20:25:54.337Z,100416.28
2019-05-03T20:28:25.022Z,100417.38
2019-05-03T20:30:55.878Z,100432.58
2019-05-03T20:33:26.333Z,100427.81
2019-05-03T20:36:00.288Z,100426.52
2019-05-03T20:38:30.680Z,100419.00
2019-05-03T20:41:05.136Z,100420.41
2019-05-03T20:44:40.896Z,100418.63
2019-05-03T20:47:42.580Z,100412.78
2019-05-03T20:50:15.929Z,100414.08
2019-05-03T20:52:46.656Z,100404.89
2019-05-03T20:55:17.125Z,100413.30
2019-05-03T20:57:47.567Z,100405.89
2019-05-03T21:00:20.880Z,100408.05
2019-05-03T21:02:54.144Z,100413.44
2019-05-03T21:05:30.477Z,100403.37
2019-05-03T21:07:55.569Z,100417.69
2019-05-03T21:10:26.053Z,100413.37
2019-05-03T21:12:56.728Z,100416.88
2019-05-03T21:15:45.482Z,100412.36
2019-05-03T21:18:44.006Z,100415.88
2019-05-03T21:21:19.837Z,100411.66
2019-05-03T21:23:57.068Z,100406.33
2019-05-03T21:26:38.550Z,100412.67
2019-05-03T21:29:15.876Z,100409.86
2019-05-03T21:31:46.418Z,100408.02
2019-05-03T21:34:17.190Z,100412.46
2019-05-03T21:36:47.905Z,100406.05
2019-05-03T21:39:18.540Z,100408.91
2019-05-03T21:41:48.924Z,100413.30
2019-05-03T21:44:32.803Z,100408.29
2019-05-03T21:47:18.682Z,100407.16
2019-05-03T21:49:48.904Z,100409.97
2019-05-03T21:52:19.027Z,100405.03
2019-05-03T21:54:49.142Z,100409.47
2019-05-03T21:57:19.407Z,100402.61
2019-05-03T21:59:52.601Z,100402.92
2019-05-03T22:02:24.687Z,100402.42
2019-05-03T22:04:56.709Z,100392.42
2019-05-03T22:07:27.267Z,100400.23
2019-05-03T22:09:57.497Z,100405.08
2019-05-03T22:12:27.707Z,100402.26
2019-05-03T22:15:07.678Z,100404.19
2019-05-03T22:18:14.890Z,100407.33
2019-05-03T22:20:38.296Z,100410.78
2019-05-03T22:23:34.115Z,100399.85
2019-05-03T22:26:07.593Z,100403.43
2019-05-03T22:28:38.059Z,100402.71
2019-05-03T22:31:08.439Z,100407.16
2019-05-03T22:33:41.171Z,100402.90
2019-05-03T22:36:11.790Z,100406.52
2019-05-03T22:38:45.362Z,100401.38
2019-05-03T22:41:25.308Z,100397.83
2019-05-03T22:43:58.405Z,100402.21
2019-05-03T22:46:28.692Z,100410.08
2019-05-03T22:49:00.183Z,100405.72
2019-05-03T22:51:30.300Z,100414.55
2019-05-03T22:54:00.429Z,100415.53
2019-05-03T22:56:30.515Z,100416.89
2019-05-03T22:59:00.660Z,100417.84
2019-05-03T23:01:30.807Z,100411.66
2019-05-03T23:04:00.962Z,100415.25
2019-05-03T23:06:31.089Z,100414.45
2019-05-03T23:09:01.221Z,100407.36
2019-05-03T23:11:32.985Z,100402.97
2019-05-03T23:14:04.867Z,100397.74
2019-05-03T23:16:35.764Z,100397.75
2019-05-03T23:19:06.006Z,100404.36
2019-05-03T23:21:54.481Z,100404.91
2019-05-03T23:24:24.823Z,100403.65
2019-05-03T23:26:54.895Z,100403.73
2019-05-03T23:29:25.064Z,100403.45
2019-05-03T23:31:55.227Z,100402.08
2019-05-03T23:34:25.407Z,100404.38
2019-05-03T23:36:56.721Z,100399.04
2019-05-03T23:39:26.921Z,100396.45
2019-05-03T23:42:00.847Z,100397.90
2019-05-03T23:44:35.115Z,100393.09
2019-05-03T23:47:25.227Z,100378.61
2019-05-03T23:49:57.913Z,100375.91
2019-05-03T23:52:37.145Z,100375.92
2019-05-03T23:55:19.014Z,100379.78
2019-05-03T23:57:50.085Z,100380.74
